createdAt,value
2019-06-15T00:02:11.339Z,100260.98
2019-06-15T00:04:42.452Z,100244.98
2019-06-15T00:07:13.600Z,100244.41
2019-06-15T00:09:44.727Z,100245.16
2019-06-15T00:12:15.855Z,100256.35
2019-06-15T00:14:46.962Z,100251.16
2019-06-15T00:17:18.106Z,100237.83
2019-06-15T00:19:49.216Z,100233.87
2019-06-15T00:22:20.362Z,100236.55
2019-06-15T00:24:51.516Z,100244.80
2019-06-15T00:27:22.666Z,100243.39
2019-06-15T00:29:53.824Z,100217.05
2019-06-15T00:32:24.993Z,100212.77
2019-06-15T00:34:56.139Z,100202.98
2019-06-15T00:37:27.286Z,100210.59
2019-06-15T00:39:58.395Z,100213.41
2019-06-15T00:42:29.528Z,100214.00
2019-06-15T00:45:00.648Z,100217.38
2019-06-15T00:47:31.763Z,100221.42
2019-06-15T00:50:02.925Z,100216.88
2019-06-15T00:52:34.083Z,100218.24
2019-06-15T00:55:05.327Z,100226.81
2019-06-15T00:57:36.796Z,100234.56
2019-06-15T01:00:08.948Z,100227.55
2019-06-15T01:02:40.113Z,100221.44
2019-06-15T01:05:11.226Z,100223.85
2019-06-15T01:07:42.355Z,100217.67
2019-06-15T01:10:14.139Z,100197.84
2019-06-15T01:12:45.492Z,100193.88
2019-06-15T01:15:18.531Z,100174.44
2019-06-15T01:17:49.656Z,100161.77
2019-06-15T01:20:21.067Z,100151.93
2019-06-15T01:22:52.485Z,100146.32
2019-06-15T01:25:23.939Z,100139.36
2019-06-15T01:27:55.085Z,100137.45
2019-06-15T01:30:26.183Z,100128.03
2019-06-15T01:32:57.317Z,100129.81
2019-06-15T01:35:28.459Z,100132.96
2019-06-15T01:37:59.571Z,100128.87
2019-06-15T01:40:30.697Z,100116.67
2019-06-15T01:43:02.121Z,100100.42
2019-06-15T01:45:33.257Z,100100.69
2019-06-15T01:48:04.366Z,100094.84
2019-06-15T01:50:35.485Z,100086.14
2019-06-15T01:53:06.589Z,100076.90
2019-06-15T01:55:37.722Z,100078.69
2019-06-15T01:58:08.829Z,100078.16
2019-06-15T02:00:39.932Z,100070.28
2019-06-15T02:03:11.636Z,100068.48
2019-06-15T02:05:42.773Z,100062.99
2019-06-15T02:08:13.895Z,100055.83
2019-06-15T02:10:45.024Z,100050.97
2019-06-15T02:13:16.126Z,100050.16
2019-06-15T02:15:47.232Z,100050.23
2019-06-15T02:18:18.729Z,100051.45
2019-06-15T02:20:49.856Z,100057.95
2019-06-15T02:23:20.955Z,100063.69
2019-06-15T02:25:52.402Z,100065.76
2019-06-15T02:28:23.568Z,100054.16
2019-06-15T02:30:54.690Z,100049.92
2019-06-15T02:33:25.777Z,100055.82
2019-06-15T02:35:57.269Z,100063.44
2019-06-15T02:38:28.392Z,100061.09
2019-06-15T02:40:59.536Z,100061.20
2019-06-15T02:43:30.862Z,100052.02
2019-06-15T02:46:02.126Z,100055.59
2019-06-15T02:48:33.236Z,100062.51
2019-06-15T02:51:04.453Z,100056.42
2019-06-15T02:53:35.579Z,100049.74
2019-06-15T02:56:07.157Z,100059.13
2019-06-15T02:58:38.285Z,100075.42
2019-06-15T03:01:11.099Z,100080.02
2019-06-15T03:03:42.192Z,100079.62
2019-06-15T03:06:13.329Z,100075.17
2019-06-15T03:08:44.828Z,100083.50
2019-06-15T03:11:15.977Z,100088.87
2019-06-15T03:13:47.603Z,100080.45
2019-06-15T03:16:18.732Z,100082.70
2019-06-15T03:18:49.847Z,100081.02
2019-06-15T03:21:21.274Z,100073.84
2019-06-15T03:23:52.378Z,100074.46
2019-06-15T03:26:23.499Z,100073.08
2019-06-15T03:28:54.624Z,100080.37
2019-06-15T03:31:25.792Z,100079.05
2019-06-15T03:33:56.904Z,100073.00
2019-06-15T03:36:28.362Z,100075.98
2019-06-15T03:38:59.477Z,100074.89
2019-06-15T03:41:30.606Z,100078.73
2019-06-15T03:44:01.726Z,100073.91
2019-06-15T03:46:32.846Z,100075.64
2019-06-15T03:49:04.034Z,100072.88
2019-06-15T03:51:35.206Z,100071.34
2019-06-15T03:54:06.333Z,100062.02
2019-06-15T03:56:37.470Z,100053.87
2019-06-15T03:59:08.601Z,100053.48
2019-06-15T04:01:47.701Z,100049.71
2019-06-15T04:04:18.845Z,100049.36
2019-06-15T04:06:49.941Z,100050.13
2019-06-15T04:09:21.071Z,100054.73
2019-06-15T04:11:52.139Z,100059.41
2019-06-15T04:14:23.532Z,100059.03
2019-06-15T04:16:54.679Z,100058.13
2019-06-15T04:19:25.859Z,100064.02
2019-06-15T04:21:56.979Z,100070.77
2019-06-15T04:24:28.097Z,100076.56
2019-06-15T04:26:59.231Z,100092.09
2019-06-15T04:29:30.361Z,100102.45
2019-06-15T04:32:01.498Z,100113.45
2019-06-15T04:34:34.619Z,100122.59
2019-06-15T04:37:05.737Z,100122.13
2019-06-15T04:39:36.858Z,100128.79
2019-06-15T04:42:07.963Z,100134.34
2019-06-15T04:44:39.093Z,100131.92
2019-06-15T04:47:10.189Z,100124.76
2019-06-15T04:49:41.324Z,100119.95
2019-06-15T04:52:12.424Z,100113.41
2019-06-15T04:54:43.545Z,100119.68
2019-06-15T04:57:14.662Z,100109.30
2019-06-15T04:59:47.789Z,100117.94
2019-06-15T05:02:18.882Z,100106.20
2019-06-15T05:04:49.995Z,100106.80
2019-06-15T05:07:21.085Z,100108.31
2019-06-15T05:09:52.173Z,100114.85
2019-06-15T05:12:23.271Z,100111.53
2019-06-15T05:14:54.405Z,100109.72
2019-06-15T05:17:25.490Z,100094.34
2019-06-15T05:19:56.658Z,100100.84
2019-06-15T05:22:27.707Z,100104.57
2019-06-15T05:24:58.924Z,100123.35
2019-06-15T05:27:30.026Z,100127.47
2019-06-15T05:30:01.140Z,100124.75
2019-06-15T05:32:32.235Z,100131.70
2019-06-15T05:35:03.328Z,100132.61
2019-06-15T05:37:34.440Z,100125.58
2019-06-15T05:40:06.153Z,100122.52
2019-06-15T05:42:37.251Z,100124.48
2019-06-15T05:45:09.119Z,100139.06
2019-06-15T05:47:40.228Z,100139.02
2019-06-15T05:50:31.413Z,100138.87
2019-06-15T05:53:02.529Z,100145.22
2019-06-15T05:55:33.883Z,100147.72
2019-06-15T05:58:05.313Z,100163.02
2019-06-15T06:00:36.427Z,100157.66
2019-06-15T06:03:07.538Z,100164.40
2019-06-15T06:05:38.712Z,100163.25
2019-06-15T06:08:11.209Z,100169.49
2019-06-15T06:10:42.330Z,100178.64
2019-06-15T06:13:13.493Z,100173.58
2019-06-15T06:15:44.617Z,100182.17
2019-06-15T06:18:16.576Z,100182.08
2019-06-15T06:20:47.788Z,100192.17
2019-06-15T06:23:18.885Z,100197.08
2019-06-15T06:26:09.167Z,100184.42
2019-06-15T06:28:40.326Z,100193.91
2019-06-15T06:31:11.445Z,100193.98
2019-06-15T06:33:42.553Z,100206.85
2019-06-15T06:36:13.673Z,100204.45
2019-06-15T06:38:44.777Z,100204.60
2019-06-15T06:41:15.889Z,100207.86
2019-06-15T06:43:47.491Z,100203.23
2019-06-15T06:46:18.617Z,100187.78
2019-06-15T06:48:49.739Z,100198.55
2019-06-15T06:51:21.153Z,100195.47
2019-06-15T06:53:52.282Z,100203.06
2019-06-15T06:56:23.410Z,100209.78
2019-06-15T06:58:54.905Z,100200.83
2019-06-15T07:01:26.032Z,100213.63
2019-06-15T07:03:57.164Z,100207.28
2019-06-15T07:06:28.318Z,100226.72
2019-06-15T07:09:00.495Z,100227.09
2019-06-15T07:11:31.617Z,100228.77
2019-06-15T07:14:03.045Z,100231.91
2019-06-15T07:16:34.189Z,100232.21
2019-06-15T07:19:05.300Z,100231.34
2019-06-15T07:21:36.442Z,100229.69
2019-06-15T07:24:07.569Z,100236.25
2019-06-15T07:26:38.710Z,100242.50
2019-06-15T07:29:10.203Z,100238.21
2019-06-15T07:31:41.364Z,100240.02
2019-06-15T07:34:12.831Z,100233.86
2019-06-15T07:36:43.956Z,100244.72
2019-06-15T07:39:15.102Z,100247.67
2019-06-15T07:41:46.209Z,100256.27
2019-06-15T07:44:17.429Z,100263.09
2019-06-15T07:46:48.550Z,100264.50
2019-06-15T07:49:19.652Z,100272.50
2019-06-15T07:51:50.789Z,100272.39
2019-06-15T07:54:21.935Z,100271.55
2019-06-15T07:56:53.070Z,100271.16
2019-06-15T07:59:24.482Z,100273.30
2019-06-15T08:01:55.639Z,100273.91
2019-06-15T08:04:26.821Z,100274.03
2019-06-15T08:06:58.204Z,100265.30
2019-06-15T08:09:29.344Z,100263.30
2019-06-15T08:12:00.469Z,100263.70
2019-06-15T08:14:31.625Z,100263.47
2019-06-15T08:17:02.759Z,100262.88
2019-06-15T08:19:33.911Z,100275.02
2019-06-15T08:22:05.030Z,100285.08
2019-06-15T08:24:36.176Z,100276.27
2019-06-15T08:27:07.320Z,100279.48
2019-06-15T08:29:38.468Z,100278.67
2019-06-15T08:32:09.897Z,100287.87
2019-06-15T08:34:41.043Z,100289.59
2019-06-15T08:37:12.427Z,100281.45
2019-06-15T08:39:43.689Z,100271.79
2019-06-15T08:42:14.805Z,100273.11
2019-06-15T08:44:45.931Z,100279.34
2019-06-15T08:47:17.036Z,100282.06
2019-06-15T08:49:48.153Z,100282.03
2019-06-15T08:52:19.533Z,100288.50
2019-06-15T08:54:50.703Z,100282.11
2019-06-15T08:57:21.772Z,100290.73
2019-06-15T08:59:52.886Z,100293.42
2019-06-15T09:02:24.031Z,100301.39
2019-06-15T09:04:55.518Z,100302.91
2019-06-15T09:07:26.890Z,100306.54
2019-06-15T09:09:58.011Z,100305.22
2019-06-15T09:12:29.146Z,100312.25
2019-06-15T09:15:00.275Z,100318.72
2019-06-15T09:17:31.377Z,100326.66
2019-06-15T09:20:02.510Z,100327.72
2019-06-15T09:22:33.621Z,100333.45
2019-06-15T09:25:05.065Z,100336.54
2019-06-15T09:27:36.168Z,100340.64
2019-06-15T09:30:07.924Z,100351.68
2019-06-15T09:32:39.052Z,100357.20
2019-06-15T09:35:10.524Z,100363.41
2019-06-15T09:37:41.677Z,100366.52
2019-06-15T09:40:12.888Z,100370.74
2019-06-15T09:42:43.992Z,100377.23
2019-06-15T09:45:15.533Z,100385.80
2019-06-15T09:47:46.672Z,100385.19
2019-06-15T09:50:17.999Z,100387.70
2019-06-15T09:52:49.470Z,100384.72
2019-06-15T09:55:20.593Z,100389.24
2019-06-15T09:57:51.691Z,100401.91
2019-06-15T10:00:23.825Z,100402.72
2019-06-15T10:02:54.900Z,100414.09
2019-06-15T10:05:26.340Z,100417.61
2019-06-15T10:07:57.435Z,100420.75
2019-06-15T10:10:28.573Z,100426.80
2019-06-15T10:12:59.694Z,100431.16
2019-06-15T10:15:30.824Z,100427.66
2019-06-15T10:18:01.996Z,100440.25
2019-06-15T10:20:33.144Z,100437.97
2019-06-15T10:23:04.241Z,100431.66
2019-06-15T10:25:35.364Z,100435.94
2019-06-15T10:28:06.476Z,100439.67
2019-06-15T10:30:37.598Z,100447.24
2019-06-15T10:33:08.748Z,100443.62
2019-06-15T10:35:39.835Z,100458.34
2019-06-15T10:38:10.976Z,100462.78
2019-06-15T10:40:42.094Z,100461.25
2019-06-15T10:43:13.203Z,100466.61
2019-06-15T10:45:44.389Z,100470.80
2019-06-15T10:48:15.545Z,100471.98
2019-06-15T10:50:46.921Z,100483.98
2019-06-15T10:53:18.041Z,100484.34
2019-06-15T10:55:49.158Z,100495.44
2019-06-15T10:58:20.290Z,100496.79
2019-06-15T11:00:51.688Z,100497.17
2019-06-15T11:03:22.817Z,100505.13
2019-06-15T11:05:54.960Z,100506.67
2019-06-15T11:08:26.152Z,100497.58
2019-06-15T11:11:11.168Z,100500.39
2019-06-15T11:13:42.288Z,100496.70
2019-06-15T11:16:13.665Z,100504.28
2019-06-15T11:18:45.283Z,100510.44
2019-06-15T11:21:16.541Z,100512.59
2019-06-15T11:23:47.657Z,100523.75
2019-06-15T11:26:19.079Z,100518.08
2019-06-15T11:28:50.214Z,100512.24
2019-06-15T11:31:21.356Z,100520.67
2019-06-15T11:33:52.513Z,100524.25
2019-06-15T11:36:23.870Z,100524.86
2019-06-15T11:38:55.001Z,100525.97
2019-06-15T11:41:26.110Z,100524.97
2019-06-15T11:43:57.223Z,100537.89
2019-06-15T11:46:28.375Z,100533.22
2019-06-15T11:48:59.839Z,100546.84
2019-06-15T11:51:30.939Z,100553.72
2019-06-15T11:54:02.354Z,100541.66
2019-06-15T11:56:33.467Z,100552.63
2019-06-15T11:59:04.608Z,100547.62
2019-06-15T12:01:35.722Z,100553.25
2019-06-15T12:04:06.846Z,100554.89
2019-06-15T12:06:37.956Z,100558.20
2019-06-15T12:09:10.083Z,100553.22
2019-06-15T12:11:41.538Z,100552.94
2019-06-15T12:14:12.668Z,100559.91
2019-06-15T12:16:43.771Z,100567.28
2019-06-15T12:19:14.886Z,100563.41
2019-06-15T12:21:45.970Z,100562.31
2019-06-15T12:24:17.076Z,100564.08
2019-06-15T12:26:48.184Z,100567.95
2019-06-15T12:29:19.304Z,100565.52
2019-06-15T12:31:50.727Z,100577.28
2019-06-15T12:34:21.891Z,100595.98
2019-06-15T12:36:52.988Z,100585.05
2019-06-15T12:39:24.124Z,100589.35
2019-06-15T12:41:55.258Z,100602.19
2019-06-15T12:44:26.372Z,100594.23
2019-06-15T12:46:57.489Z,100597.88
2019-06-15T12:49:28.638Z,100592.92
2019-06-15T12:51:59.783Z,100592.69
2019-06-15T12:54:30.887Z,100598.98
2019-06-15T12:57:02.020Z,100595.28
2019-06-15T12:59:33.302Z,100597.30
2019-06-15T13:02:04.437Z,100594.03
2019-06-15T13:04:35.551Z,100597.02
2019-06-15T13:07:06.717Z,100608.19
2019-06-15T13:09:37.785Z,100604.20
2019-06-15T13:12:08.902Z,100607.54
2019-06-15T13:14:39.998Z,100603.89
2019-06-15T13:17:11.128Z,100604.39
2019-06-15T13:19:42.336Z,100614.33
2019-06-15T13:22:13.442Z,100613.29
2019-06-15T13:24:44.544Z,100613.59
2019-06-15T13:27:15.673Z,100609.02
2019-06-15T13:29:46.766Z,100620.94
2019-06-15T13:32:17.915Z,100623.50
2019-06-15T13:34:49.064Z,100626.27
2019-06-15T13:37:20.182Z,100620.66
2019-06-15T13:39:51.283Z,100629.38
2019-06-15T13:42:22.540Z,100631.66
2019-06-15T13:44:53.642Z,100628.51
2019-06-15T13:47:25.034Z,100633.14
2019-06-15T13:49:56.242Z,100623.95
2019-06-15T13:52:27.389Z,100621.81
2019-06-15T13:54:58.580Z,100634.32
2019-06-15T13:57:29.722Z,100640.30
2019-06-15T14:00:00.832Z,100640.87
2019-06-15T14:02:31.993Z,100635.74
2019-06-15T14:05:03.126Z,100633.08
2019-06-15T14:07:34.242Z,100631.47
2019-06-15T14:10:05.674Z,100635.83
2019-06-15T14:12:37.039Z,100647.58
2019-06-15T14:15:09.447Z,100640.81
2019-06-15T14:17:40.567Z,100635.44
2019-06-15T14:20:12.037Z,100637.91
2019-06-15T14:22:43.163Z,100631.78
2019-06-15T14:25:14.449Z,100634.74
2019-06-15T14:27:45.596Z,100639.58
2019-06-15T14:30:17.148Z,100634.88
2019-06-15T14:32:48.463Z,100638.29
2019-06-15T14:35:19.644Z,100636.94
2019-06-15T14:37:50.780Z,100636.84
2019-06-15T14:40:21.966Z,100635.61
2019-06-15T14:42:53.351Z,100635.23
2019-06-15T14:45:25.972Z,100629.42
2019-06-15T14:47:57.130Z,100637.91
2019-06-15T14:50:28.258Z,100629.72
2019-06-15T14:52:59.391Z,100632.05
2019-06-15T14:55:30.542Z,100640.23
2019-06-15T14:58:01.735Z,100638.44
2019-06-15T15:00:32.884Z,100636.43
2019-06-15T15:03:06.748Z,100640.34
2019-06-15T15:05:36.839Z,100635.10
2019-06-15T15:08:07.995Z,100621.16
2019-06-15T15:10:39.089Z,100636.95
2019-06-15T15:13:10.294Z,100640.46
2019-06-15T15:15:41.580Z,100639.02
2019-06-15T15:18:12.739Z,100636.99
2019-06-15T15:20:43.865Z,100634.06
2019-06-15T15:23:14.968Z,100645.53
2019-06-15T15:25:47.092Z,100642.33
2019-06-15T15:28:18.381Z,100645.27
2019-06-15T15:30:49.817Z,100651.66
2019-06-15T15:33:20.992Z,100652.48
2019-06-15T15:35:52.107Z,100657.47
2019-06-15T15:38:23.251Z,100654.69
2019-06-15T15:40:56.116Z,100661.67
2019-06-15T15:43:27.258Z,100660.36
2019-06-15T15:45:58.378Z,100661.03
2019-06-15T15:48:29.497Z,100655.89
2019-06-15T15:51:01.734Z,100659.62
2019-06-15T15:53:32.859Z,100660.87
2019-06-15T15:56:06.246Z,100658.95
2019-06-15T15:58:36.839Z,100670.83
2019-06-15T16:01:07.959Z,100667.05
2019-06-15T16:03:39.347Z,100672.77
2019-06-15T16:06:10.471Z,100668.91
2019-06-15T16:08:41.587Z,100658.58
2019-06-15T16:11:12.748Z,100653.83
2019-06-15T16:13:45.944Z,100655.23
2019-06-15T16:16:17.048Z,100662.13
2019-06-15T16:18:48.457Z,100660.80
2019-06-15T16:23:12.417Z,100668.75
2019-06-15T16:25:43.014Z,100673.89
2019-06-15T16:28:13.601Z,100666.67
2019-06-15T16:31:01.575Z,100668.14
2019-06-15T16:33:16.532Z,100664.25
2019-06-15T16:35:47.134Z,100660.50
2019-06-15T16:38:19.545Z,100658.88
2019-06-15T16:40:50.069Z,100662.54
2019-06-15T16:43:20.656Z,100663.64
2019-06-15T16:45:51.250Z,100660.33
2019-06-15T16:48:21.828Z,100665.61
2019-06-15T16:50:52.438Z,100665.06
2019-06-15T16:53:23.012Z,100667.30
2019-06-15T16:55:53.633Z,100672.91
2019-06-15T16:58:26.364Z,100666.23
2019-06-15T17:00:57.193Z,100662.98
2019-06-15T17:03:29.424Z,100670.98
2019-06-15T17:06:00.340Z,100668.08
2019-06-15T17:08:30.963Z,100661.05
2019-06-15T17:11:01.509Z,100656.95
2019-06-15T17:13:32.130Z,100663.58
2019-06-15T17:16:02.770Z,100661.41
2019-06-15T17:18:33.388Z,100656.11
2019-06-15T17:21:06.806Z,100656.64
2019-06-15T17:23:36.308Z,100655.48
2019-06-15T17:26:06.928Z,100659.58
2019-06-15T17:28:37.512Z,100659.25
2019-06-15T17:31:08.130Z,100661.25
2019-06-15T17:33:38.829Z,100663.84
2019-06-15T17:36:09.456Z,100664.59
2019-06-15T17:38:40.363Z,100668.31
2019-06-15T17:41:10.938Z,100667.27
2019-06-15T17:43:41.532Z,100657.92
2019-06-15T17:46:12.115Z,100651.86
2019-06-15T17:48:42.784Z,100642.37
2019-06-15T17:51:15.924Z,100650.74
2019-06-15T17:53:47.957Z,100648.42
2019-06-15T17:56:23.909Z,100653.30
2019-06-15T17:58:54.473Z,100655.16
2019-06-15T18:01:26.506Z,100651.99
2019-06-15T18:03:58.294Z,100653.77
2019-06-15T18:06:29.004Z,100656.13
2019-06-15T18:08:59.705Z,100662.16
2019-06-15T18:11:30.514Z,100657.31
2019-06-15T18:14:01.078Z,100654.58
2019-06-15T18:16:31.686Z,100652.33
2019-06-15T18:19:02.292Z,100654.49
2019-06-15T18:21:32.891Z,100643.60
2019-06-15T18:24:03.490Z,100648.14
2019-06-15T18:26:36.393Z,100649.59
2019-06-15T18:29:06.782Z,100663.08
2019-06-15T18:31:37.402Z,100666.64
2019-06-15T18:34:12.764Z,100656.70
2019-06-15T18:36:40.374Z,100652.44
2019-06-15T18:39:10.978Z,100655.89
2019-06-15T18:41:41.639Z,100657.75
2019-06-15T18:44:12.321Z,100659.51
2019-06-15T18:46:43.635Z,100649.24
2019-06-15T18:49:15.926Z,100655.91
2019-06-15T18:51:46.644Z,100653.43
2019-06-15T18:54:17.232Z,100654.80
2019-06-15T18:56:48.203Z,100653.35
2019-06-15T18:59:18.821Z,100654.02
2019-06-15T19:01:49.412Z,100649.69
2019-06-15T19:04:27.160Z,100652.33
2019-06-15T19:06:52.411Z,100644.84
2019-06-15T19:09:23.027Z,100648.62
2019-06-15T19:11:56.468Z,100653.06
2019-06-15T19:14:27.171Z,100661.44
2019-06-15T19:16:57.889Z,100663.54
2019-06-15T19:19:28.539Z,100661.70
2019-06-15T19:21:59.086Z,100666.70
2019-06-15T19:24:29.761Z,100667.27
2019-06-15T19:27:00.367Z,100666.73
2019-06-15T19:29:30.951Z,100664.56
2019-06-15T19:32:01.504Z,100672.73
2019-06-15T19:34:44.338Z,100677.71
2019-06-15T19:37:06.741Z,100681.60
2019-06-15T19:39:37.031Z,100684.53
2019-06-15T19:42:07.712Z,100684.16
2019-06-15T19:44:38.794Z,100692.75
2019-06-15T19:47:09.517Z,100695.09
2019-06-15T19:49:42.368Z,100702.42
2019-06-15T19:52:31.345Z,100719.01
2019-06-15T19:55:02.055Z,100725.42
2019-06-15T19:57:36.775Z,100723.27
2019-06-15T20:00:08.575Z,100731.06
2019-06-15T20:02:39.175Z,100729.97
2019-06-15T20:05:10.725Z,100730.85
2019-06-15T20:07:41.334Z,100745.04
2019-06-15T20:10:12.327Z,100745.08
2019-06-15T20:12:46.454Z,100751.72
2019-06-15T20:15:16.821Z,100743.19
2019-06-15T20:17:47.614Z,100744.91
2019-06-15T20:20:18.317Z,100743.05
2019-06-15T20:22:48.900Z,100741.27
2019-06-15T20:25:19.506Z,100742.52
2019-06-15T20:27:50.085Z,100752.58
2019-06-15T20:30:21.510Z,100754.33
2019-06-15T20:32:52.204Z,100759.30
2019-06-15T20:35:23.019Z,100775.27
2019-06-15T20:37:55.856Z,100777.55
2019-06-15T20:40:26.728Z,100773.61
2019-06-15T20:42:57.514Z,100766.64
2019-06-15T20:45:31.412Z,100765.86
2019-06-15T20:48:00.579Z,100761.90
2019-06-15T20:50:32.277Z,100763.59
2019-06-15T20:53:03.026Z,100765.31
2019-06-15T20:55:33.773Z,100765.22
2019-06-15T20:58:06.462Z,100767.47
2019-06-15T21:00:36.963Z,100764.47
2019-06-15T21:03:07.697Z,100761.06
2019-06-15T21:05:41.911Z,100767.47
2019-06-15T21:08:10.758Z,100768.89
2019-06-15T21:10:41.761Z,100772.77
2019-06-15T21:13:12.429Z,100773.84
2019-06-15T21:15:47.475Z,100773.03
2019-06-15T21:18:18.491Z,100776.03
2019-06-15T21:20:49.216Z,100789.08
2019-06-15T21:23:19.861Z,100795.80
2019-06-15T21:25:50.578Z,100791.66
2019-06-15T21:28:21.217Z,100799.20
2019-06-15T21:30:51.894Z,100805.64
2019-06-15T21:33:22.546Z,100821.43
2019-06-15T21:35:56.671Z,100816.70
2019-06-15T21:39:02.472Z,100817.08
2019-06-15T21:41:36.745Z,100821.74
2019-06-15T21:44:07.634Z,100819.23
2019-06-15T21:46:38.229Z,100828.66
2019-06-15T21:49:09.060Z,100823.84
2019-06-15T21:59:33.444Z,100828.48
2019-06-15T22:02:06.990Z,100831.80
2019-06-15T22:04:38.960Z,100834.74
2019-06-15T22:07:10.709Z,100832.95
2019-06-15T22:09:41.613Z,100837.30
2019-06-15T22:12:12.903Z,100834.33
2019-06-15T22:14:46.493Z,100836.38
2019-06-15T22:17:22.855Z,100845.04
2019-06-15T22:19:53.534Z,100848.03
2019-06-15T22:22:27.143Z,100851.41
2019-06-15T22:24:56.623Z,100860.20
2019-06-15T22:27:27.234Z,100854.22
2019-06-15T22:29:58.097Z,100858.02
2019-06-15T22:32:28.704Z,100866.88
2019-06-15T22:34:59.342Z,100873.41
2019-06-15T22:40:07.724Z,100884.22
2019-06-15T22:42:39.831Z,100885.94
2019-06-15T22:45:10.867Z,100901.68
2019-06-15T22:47:41.518Z,100909.25
2019-06-15T22:50:12.415Z,100909.81
2019-06-15T22:52:43.055Z,100912.73
2019-06-15T22:55:16.446Z,100913.20
2019-06-15T22:57:46.473Z,100916.69
2019-06-15T23:00:18.458Z,100917.04
2019-06-15T23:02:49.055Z,100911.64
2019-06-15T23:05:19.632Z,100915.84
2019-06-15T23:07:50.204Z,100915.13
2019-06-15T23:10:21.241Z,100915.96
2019-06-15T23:12:51.823Z,100920.17
2019-06-15T23:15:22.548Z,100921.81
2019-06-15T23:17:53.159Z,100929.79
2019-06-15T23:20:26.836Z,100927.62
2019-06-15T23:22:56.256Z,100921.52
2019-06-15T23:25:27.467Z,100917.05
2019-06-15T23:27:58.101Z,100922.33
2019-06-15T23:30:28.713Z,100919.33
2019-06-15T23:32:59.570Z,100918.86
2019-06-15T23:35:56.796Z,100921.27
2019-06-15T23:38:27.479Z,100929.67
2019-06-15T23:41:18.362Z,100936.25
2019-06-15T23:43:48.946Z,100931.48
2019-06-15T23:46:19.573Z,100937.91
2019-06-15T23:48:50.156Z,100939.88
2019-06-15T23:51:20.728Z,100937.47
2019-06-15T23:53:51.342Z,100930.72
2019-06-15T23:56:21.947Z,100926.89
2019-06-15T23:58:52.530Z,100928.59
